Terminal Aerodrome Forecast
Issued by NWS Charleston, WV

Current Version | Previous Version | Graphics & Text | Print | Product List | Glossary On
Versions: 1 2 3 4 5 6 7 8 9 10 11 12 13 14 15 16 17 18 19 20 21 22 23 24 25 26 27 28 29 30 31
000
FTUS41 KRLX 251700 RRA
TAFCRW
TAF
KCRW 251743Z 2518/2618 07005KT 5SM -SHRA BKN007 OVC025
     FM252000 05006KT P6SM SHRA BKN008
     FM252200 10007KT P6SM VCSH OVC008
     FM260400 03007KT 3SM SHRA BR OVC005
     FM260800 VRB03KT 2SM -SHRA BR OVC008
     FM261000 VRB03KT 5SM BR OVC015
     FM261200 32004KT P6SM BKN030=

USA.gov is the U.S. government's official web portal to all federal, state and local government web resources and services.